sensor_id;sensor_type;location;lat;lon;timestamp;P1;durP1;ratioP1;P2;durP2;ratioP2
44328;SDS011;30039;51.462;6.892;2023-09-19T00:01:48;4.43;;;1.90;;
44328;SDS011;30039;51.462;6.892;2023-09-19T00:04:33;6.65;;;1.90;;
44328;SDS011;30039;51.462;6.892;2023-09-19T00:07:19;8.82;;;2.15;;
44328;SDS011;30039;51.462;6.892;2023-09-19T00:10:07;9.50;;;2.33;;
44328;SDS011;30039;51.462;6.892;2023-09-19T00:12:55;6.60;;;1.95;;
44328;SDS011;30039;51.462;6.892;2023-09-19T00:15:41;9.73;;;2.30;;
44328;SDS011;30039;51.462;6.892;2023-09-19T00:18:27;7.05;;;2.42;;
44328;SDS011;30039;51.462;6.892;2023-09-19T00:21:17;6.45;;;1.73;;
44328;SDS011;30039;51.462;6.892;2023-09-19T00:24:04;5.88;;;1.90;;
44328;SDS011;30039;51.462;6.892;2023-09-19T00:26:51;6.95;;;1.80;;
44328;SDS011;30039;51.462;6.892;2023-09-19T00:29:36;6.35;;;2.10;;
44328;SDS011;30039;51.462;6.892;2023-09-19T00:32:22;8.02;;;1.80;;
44328;SDS011;30039;51.462;6.892;2023-09-19T00:35:08;5.63;;;1.80;;
44328;SDS011;30039;51.462;6.892;2023-09-19T00:37:56;9.25;;;2.30;;
44328;SDS011;30039;51.462;6.892;2023-09-19T00:40:45;6.50;;;1.90;;
44328;SDS011;30039;51.462;6.892;2023-09-19T00:43:31;7.60;;;2.03;;
44328;SDS011;30039;51.462;6.892;2023-09-19T00:46:19;11.98;;;2.17;;
44328;SDS011;30039;51.462;6.892;2023-09-19T00:49:05;7.97;;;1.83;;
44328;SDS011;30039;51.462;6.892;2023-09-19T00:51:53;4.72;;;1.80;;
44328;SDS011;30039;51.462;6.892;2023-09-19T00:54:38;7.55;;;1.77;;
44328;SDS011;30039;51.462;6.892;2023-09-19T00:57:24;5.28;;;1.73;;
44328;SDS011;30039;51.462;6.892;2023-09-19T01:00:10;8.25;;;1.98;;
44328;SDS011;30039;51.462;6.892;2023-09-19T01:02:57;10.00;;;2.40;;
44328;SDS011;30039;51.462;6.892;2023-09-19T01:05:43;6.13;;;2.08;;
44328;SDS011;30039;51.462;6.892;2023-09-19T01:08:29;6.80;;;2.17;;
44328;SDS011;30039;51.462;6.892;2023-09-19T01:11:17;10.10;;;2.25;;
44328;SDS011;30039;51.462;6.892;2023-09-19T01:14:10;8.45;;;2.30;;
44328;SDS011;30039;51.462;6.892;2023-09-19T01:17:03;8.95;;;2.25;;
44328;SDS011;30039;51.462;6.892;2023-09-19T01:20:05;12.07;;;2.03;;
44328;SDS011;30039;51.462;6.892;2023-09-19T01:23:00;6.90;;;2.13;;
44328;SDS011;30039;51.462;6.892;2023-09-19T01:28:45;5.63;;;2.45;;
44328;SDS011;30039;51.462;6.892;2023-09-19T01:31:39;11.48;;;1.95;;
44328;SDS011;30039;51.462;6.892;2023-09-19T01:34:25;11.13;;;2.30;;
44328;SDS011;30039;51.462;6.892;2023-09-19T01:37:12;9.30;;;2.17;;
44328;SDS011;30039;51.462;6.892;2023-09-19T01:39:58;8.75;;;2.40;;
44328;SDS011;30039;51.462;6.892;2023-09-19T01:43:12;5.50;;;2.20;;
44328;SDS011;30039;51.462;6.892;2023-09-19T01:46:09;11.73;;;2.85;;
44328;SDS011;30039;51.462;6.892;2023-09-19T01:49:04;8.43;;;2.25;;
44328;SDS011;30039;51.462;6.892;2023-09-19T01:54:52;10.10;;;2.25;;
44328;SDS011;30039;51.462;6.892;2023-09-19T01:57:42;10.52;;;2.20;;
44328;SDS011;30039;51.462;6.892;2023-09-19T02:00:29;7.38;;;2.00;;
44328;SDS011;30039;51.462;6.892;2023-09-19T02:03:15;9.57;;;2.45;;
44328;SDS011;30039;51.462;6.892;2023-09-19T02:06:01;8.73;;;2.05;;
44328;SDS011;30039;51.462;6.892;2023-09-19T02:08:48;5.55;;;1.75;;
44328;SDS011;30039;51.462;6.892;2023-09-19T02:11:35;6.10;;;1.70;;
44328;SDS011;30039;51.462;6.892;2023-09-19T02:14:20;10.45;;;1.85;;
44328;SDS011;30039;51.462;6.892;2023-09-19T02:17:06;8.88;;;1.80;;
44328;SDS011;30039;51.462;6.892;2023-09-19T02:19:53;6.22;;;1.75;;
44328;SDS011;30039;51.462;6.892;2023-09-19T02:22:38;6.38;;;1.60;;
44328;SDS011;30039;51.462;6.892;2023-09-19T02:25:24;7.45;;;2.13;;
44328;SDS011;30039;51.462;6.892;2023-09-19T02:28:12;5.93;;;2.25;;
44328;SDS011;30039;51.462;6.892;2023-09-19T02:31:00;5.28;;;1.38;;
44328;SDS011;30039;51.462;6.892;2023-09-19T02:33:46;11.02;;;1.75;;
44328;SDS011;30039;51.462;6.892;2023-09-19T02:36:31;9.75;;;1.90;;
44328;SDS011;30039;51.462;6.892;2023-09-19T02:39:17;9.30;;;1.95;;
44328;SDS011;30039;51.462;6.892;2023-09-19T02:42:03;7.93;;;1.67;;
44328;SDS011;30039;51.462;6.892;2023-09-19T02:44:51;10.35;;;1.83;;
44328;SDS011;30039;51.462;6.892;2023-09-19T02:47:36;7.35;;;2.03;;
44328;SDS011;30039;51.462;6.892;2023-09-19T02:50:22;6.50;;;1.95;;
44328;SDS011;30039;51.462;6.892;2023-09-19T02:53:07;5.78;;;1.92;;
44328;SDS011;30039;51.462;6.892;2023-09-19T02:55:53;9.05;;;1.80;;
44328;SDS011;30039;51.462;6.892;2023-09-19T02:58:39;5.18;;;2.00;;
44328;SDS011;30039;51.462;6.892;2023-09-19T03:01:24;11.57;;;1.95;;
44328;SDS011;30039;51.462;6.892;2023-09-19T03:04:10;13.63;;;2.60;;
44328;SDS011;30039;51.462;6.892;2023-09-19T03:06:56;8.20;;;1.80;;
44328;SDS011;30039;51.462;6.892;2023-09-19T03:09:45;4.53;;;1.73;;
44328;SDS011;30039;51.462;6.892;2023-09-19T03:12:31;8.75;;;2.00;;
44328;SDS011;30039;51.462;6.892;2023-09-19T03:15:17;7.53;;;2.05;;
44328;SDS011;30039;51.462;6.892;2023-09-19T03:18:03;11.02;;;2.35;;
44328;SDS011;30039;51.462;6.892;2023-09-19T03:20:53;7.82;;;1.90;;
44328;SDS011;30039;51.462;6.892;2023-09-19T03:23:40;8.27;;;1.98;;
44328;SDS011;30039;51.462;6.892;2023-09-19T03:26:26;10.27;;;2.25;;
44328;SDS011;30039;51.462;6.892;2023-09-19T03:29:11;10.88;;;2.10;;
44328;SDS011;30039;51.462;6.892;2023-09-19T03:31:58;8.48;;;2.20;;
44328;SDS011;30039;51.462;6.892;2023-09-19T03:34:43;7.80;;;2.28;;
44328;SDS011;30039;51.462;6.892;2023-09-19T03:37:29;10.07;;;1.90;;
44328;SDS011;30039;51.462;6.892;2023-09-19T03:40:14;8.57;;;2.25;;
44328;SDS011;30039;51.462;6.892;2023-09-19T03:43:01;6.35;;;2.40;;
44328;SDS011;30039;51.462;6.892;2023-09-19T03:45:47;15.02;;;2.38;;
44328;SDS011;30039;51.462;6.892;2023-09-19T03:48:34;6.63;;;2.13;;
44328;SDS011;30039;51.462;6.892;2023-09-19T03:51:19;8.90;;;2.58;;
44328;SDS011;30039;51.462;6.892;2023-09-19T03:54:05;9.00;;;2.20;;
44328;SDS011;30039;51.462;6.892;2023-09-19T03:56:50;7.03;;;2.20;;
44328;SDS011;30039;51.462;6.892;2023-09-19T03:59:36;5.57;;;1.80;;
44328;SDS011;30039;51.462;6.892;2023-09-19T04:02:22;8.80;;;2.00;;
44328;SDS011;30039;51.462;6.892;2023-09-19T04:05:07;9.48;;;2.45;;
44328;SDS011;30039;51.462;6.892;2023-09-19T04:07:53;10.00;;;2.50;;
44328;SDS011;30039;51.462;6.892;2023-09-19T04:10:41;5.88;;;2.13;;
44328;SDS011;30039;51.462;6.892;2023-09-19T04:13:26;6.75;;;1.95;;
44328;SDS011;30039;51.462;6.892;2023-09-19T04:16:12;10.77;;;2.03;;
44328;SDS011;30039;51.462;6.892;2023-09-19T04:18:57;5.63;;;1.83;;
44328;SDS011;30039;51.462;6.892;2023-09-19T04:21:43;7.63;;;2.00;;
44328;SDS011;30039;51.462;6.892;2023-09-19T04:24:30;5.50;;;2.20;;
44328;SDS011;30039;51.462;6.892;2023-09-19T04:27:17;6.68;;;1.92;;
44328;SDS011;30039;51.462;6.892;2023-09-19T04:30:04;10.90;;;2.42;;
44328;SDS011;30039;51.462;6.892;2023-09-19T04:32:55;8.88;;;2.10;;
44328;SDS011;30039;51.462;6.892;2023-09-19T04:35:41;9.88;;;1.75;;
44328;SDS011;30039;51.462;6.892;2023-09-19T04:38:27;5.50;;;1.70;;
44328;SDS011;30039;51.462;6.892;2023-09-19T04:41:14;6.68;;;2.33;;
44328;SDS011;30039;51.462;6.892;2023-09-19T04:44:00;10.35;;;1.85;;
44328;SDS011;30039;51.462;6.892;2023-09-19T04:46:46;7.55;;;2.00;;
44328;SDS011;30039;51.462;6.892;2023-09-19T04:49:32;6.80;;;1.77;;
44328;SDS011;30039;51.462;6.892;2023-09-19T04:52:17;8.38;;;2.28;;
44328;SDS011;30039;51.462;6.892;2023-09-19T04:55:04;9.43;;;2.10;;
44328;SDS011;30039;51.462;6.892;2023-09-19T04:57:50;6.60;;;1.77;;
44328;SDS011;30039;51.462;6.892;2023-09-19T05:00:36;6.60;;;1.75;;
44328;SDS011;30039;51.462;6.892;2023-09-19T05:03:21;6.85;;;1.85;;
44328;SDS011;30039;51.462;6.892;2023-09-19T05:06:07;8.10;;;1.90;;
44328;SDS011;30039;51.462;6.892;2023-09-19T05:08:53;8.15;;;1.75;;
44328;SDS011;30039;51.462;6.892;2023-09-19T05:11:38;6.88;;;1.65;;
44328;SDS011;30039;51.462;6.892;2023-09-19T05:14:24;10.10;;;1.77;;
44328;SDS011;30039;51.462;6.892;2023-09-19T05:17:10;9.50;;;1.88;;
44328;SDS011;30039;51.462;6.892;2023-09-19T05:19:55;8.57;;;1.88;;
44328;SDS011;30039;51.462;6.892;2023-09-19T05:22:41;6.80;;;2.10;;
44328;SDS011;30039;51.462;6.892;2023-09-19T05:25:31;4.53;;;1.70;;
44328;SDS011;30039;51.462;6.892;2023-09-19T05:28:17;10.95;;;2.17;;
44328;SDS011;30039;51.462;6.892;2023-09-19T05:31:03;12.25;;;1.90;;
44328;SDS011;30039;51.462;6.892;2023-09-19T05:33:48;3.63;;;1.67;;
44328;SDS011;30039;51.462;6.892;2023-09-19T05:36:35;8.15;;;2.13;;
44328;SDS011;30039;51.462;6.892;2023-09-19T05:39:20;9.40;;;2.15;;
44328;SDS011;30039;51.462;6.892;2023-09-19T05:42:06;8.07;;;2.08;;
44328;SDS011;30039;51.462;6.892;2023-09-19T05:44:53;8.73;;;2.13;;
44328;SDS011;30039;51.462;6.892;2023-09-19T05:47:39;11.45;;;2.00;;
44328;SDS011;30039;51.462;6.892;2023-09-19T05:50:25;8.95;;;2.33;;
44328;SDS011;30039;51.462;6.892;2023-09-19T05:53:11;7.90;;;2.10;;
44328;SDS011;30039;51.462;6.892;2023-09-19T05:55:58;10.57;;;2.13;;
44328;SDS011;30039;51.462;6.892;2023-09-19T05:58:46;7.28;;;1.98;;
44328;SDS011;30039;51.462;6.892;2023-09-19T06:01:31;10.45;;;2.15;;
44328;SDS011;30039;51.462;6.892;2023-09-19T06:04:19;8.27;;;2.00;;
44328;SDS011;30039;51.462;6.892;2023-09-19T06:07:05;11.40;;;2.30;;
44328;SDS011;30039;51.462;6.892;2023-09-19T06:09:51;10.43;;;2.22;;
44328;SDS011;30039;51.462;6.892;2023-09-19T06:12:40;8.15;;;2.00;;
44328;SDS011;30039;51.462;6.892;2023-09-19T06:15:26;10.90;;;2.40;;
44328;SDS011;30039;51.462;6.892;2023-09-19T06:18:12;5.32;;;1.65;;
44328;SDS011;30039;51.462;6.892;2023-09-19T06:21:04;7.78;;;2.20;;
44328;SDS011;30039;51.462;6.892;2023-09-19T06:23:53;10.18;;;2.00;;
44328;SDS011;30039;51.462;6.892;2023-09-19T06:26:38;8.60;;;2.30;;
44328;SDS011;30039;51.462;6.892;2023-09-19T06:29:24;10.68;;;2.38;;
44328;SDS011;30039;51.462;6.892;2023-09-19T06:32:10;12.95;;;2.28;;
44328;SDS011;30039;51.462;6.892;2023-09-19T06:34:55;7.43;;;2.05;;
44328;SDS011;30039;51.462;6.892;2023-09-19T06:37:44;9.02;;;2.45;;
44328;SDS011;30039;51.462;6.892;2023-09-19T06:40:29;10.02;;;2.50;;
44328;SDS011;30039;51.462;6.892;2023-09-19T06:43:16;7.85;;;2.72;;
44328;SDS011;30039;51.462;6.892;2023-09-19T06:46:01;10.15;;;2.55;;
44328;SDS011;30039;51.462;6.892;2023-09-19T06:48:47;8.82;;;2.42;;
44328;SDS011;30039;51.462;6.892;2023-09-19T06:51:33;9.05;;;2.47;;
44328;SDS011;30039;51.462;6.892;2023-09-19T06:54:19;8.13;;;2.08;;
44328;SDS011;30039;51.462;6.892;2023-09-19T06:57:05;8.05;;;2.00;;
44328;SDS011;30039;51.462;6.892;2023-09-19T06:59:54;10.40;;;2.22;;
44328;SDS011;30039;51.462;6.892;2023-09-19T07:02:41;12.90;;;2.72;;
44328;SDS011;30039;51.462;6.892;2023-09-19T07:05:30;9.07;;;2.28;;
44328;SDS011;30039;51.462;6.892;2023-09-19T07:08:16;7.93;;;1.58;;
44328;SDS011;30039;51.462;6.892;2023-09-19T07:11:02;8.10;;;1.60;;
44328;SDS011;30039;51.462;6.892;2023-09-19T07:13:47;10.65;;;2.17;;
44328;SDS011;30039;51.462;6.892;2023-09-19T07:16:33;7.95;;;2.08;;
44328;SDS011;30039;51.462;6.892;2023-09-19T07:19:18;8.55;;;1.60;;
44328;SDS011;30039;51.462;6.892;2023-09-19T07:22:04;9.52;;;1.80;;
44328;SDS011;30039;51.462;6.892;2023-09-19T07:24:49;8.18;;;2.25;;
44328;SDS011;30039;51.462;6.892;2023-09-19T07:27:35;9.60;;;2.58;;
44328;SDS011;30039;51.462;6.892;2023-09-19T07:30:20;13.95;;;2.50;;
44328;SDS011;30039;51.462;6.892;2023-09-19T07:33:06;8.55;;;1.90;;
44328;SDS011;30039;51.462;6.892;2023-09-19T07:35:52;8.45;;;2.05;;
44328;SDS011;30039;51.462;6.892;2023-09-19T07:38:38;10.40;;;1.98;;
44328;SDS011;30039;51.462;6.892;2023-09-19T07:41:23;7.30;;;1.80;;
44328;SDS011;30039;51.462;6.892;2023-09-19T07:44:09;4.60;;;1.42;;
44328;SDS011;30039;51.462;6.892;2023-09-19T07:46:57;9.57;;;1.70;;
44328;SDS011;30039;51.462;6.892;2023-09-19T07:49:45;7.15;;;2.08;;
44328;SDS011;30039;51.462;6.892;2023-09-19T07:52:32;9.18;;;1.95;;
44328;SDS011;30039;51.462;6.892;2023-09-19T07:55:19;10.63;;;2.15;;
44328;SDS011;30039;51.462;6.892;2023-09-19T07:58:08;6.57;;;1.92;;
44328;SDS011;30039;51.462;6.892;2023-09-19T08:00:53;5.95;;;1.85;;
44328;SDS011;30039;51.462;6.892;2023-09-19T08:03:39;7.25;;;2.10;;
44328;SDS011;30039;51.462;6.892;2023-09-19T08:06:29;7.45;;;1.83;;
44328;SDS011;30039;51.462;6.892;2023-09-19T08:09:15;7.38;;;1.80;;
44328;SDS011;30039;51.462;6.892;2023-09-19T08:12:06;8.95;;;1.98;;
44328;SDS011;30039;51.462;6.892;2023-09-19T08:14:53;9.57;;;2.42;;
44328;SDS011;30039;51.462;6.892;2023-09-19T08:17:40;10.80;;;2.30;;
44328;SDS011;30039;51.462;6.892;2023-09-19T08:20:26;8.10;;;1.95;;
44328;SDS011;30039;51.462;6.892;2023-09-19T08:23:12;7.80;;;1.90;;
44328;SDS011;30039;51.462;6.892;2023-09-19T08:25:58;7.00;;;2.20;;
44328;SDS011;30039;51.462;6.892;2023-09-19T08:28:48;8.32;;;1.75;;
44328;SDS011;30039;51.462;6.892;2023-09-19T08:31:33;8.73;;;2.00;;
44328;SDS011;30039;51.462;6.892;2023-09-19T08:34:19;8.65;;;2.28;;
44328;SDS011;30039;51.462;6.892;2023-09-19T08:37:04;10.75;;;1.90;;
44328;SDS011;30039;51.462;6.892;2023-09-19T08:39:50;8.65;;;1.90;;
44328;SDS011;30039;51.462;6.892;2023-09-19T08:42:51;7.05;;;1.92;;
44328;SDS011;30039;51.462;6.892;2023-09-19T08:45:38;10.88;;;1.88;;
44328;SDS011;30039;51.462;6.892;2023-09-19T08:48:27;6.88;;;2.20;;
44328;SDS011;30039;51.462;6.892;2023-09-19T08:52:01;9.00;;;2.45;;
44328;SDS011;30039;51.462;6.892;2023-09-19T08:54:24;13.23;;;2.13;;
44328;SDS011;30039;51.462;6.892;2023-09-19T08:57:11;6.40;;;1.83;;
44328;SDS011;30039;51.462;6.892;2023-09-19T08:59:57;6.25;;;1.85;;
44328;SDS011;30039;51.462;6.892;2023-09-19T09:02:45;4.70;;;1.50;;
44328;SDS011;30039;51.462;6.892;2023-09-19T09:05:30;6.35;;;1.88;;
44328;SDS011;30039;51.462;6.892;2023-09-19T09:08:18;6.68;;;1.90;;
44328;SDS011;30039;51.462;6.892;2023-09-19T09:11:05;11.50;;;2.28;;
44328;SDS011;30039;51.462;6.892;2023-09-19T09:13:53;7.72;;;2.10;;
44328;SDS011;30039;51.462;6.892;2023-09-19T09:16:38;9.77;;;1.95;;
44328;SDS011;30039;51.462;6.892;2023-09-19T09:19:24;7.80;;;1.67;;
44328;SDS011;30039;51.462;6.892;2023-09-19T09:22:10;9.10;;;1.92;;
44328;SDS011;30039;51.462;6.892;2023-09-19T09:24:56;7.93;;;2.15;;
44328;SDS011;30039;51.462;6.892;2023-09-19T09:27:44;7.35;;;1.70;;
44328;SDS011;30039;51.462;6.892;2023-09-19T09:30:36;8.50;;;1.83;;
44328;SDS011;30039;51.462;6.892;2023-09-19T09:33:22;10.18;;;1.88;;
44328;SDS011;30039;51.462;6.892;2023-09-19T09:36:08;7.60;;;1.75;;
44328;SDS011;30039;51.462;6.892;2023-09-19T09:38:55;5.65;;;1.77;;
44328;SDS011;30039;51.462;6.892;2023-09-19T09:41:40;5.30;;;1.73;;
44328;SDS011;30039;51.462;6.892;2023-09-19T09:44:26;4.90;;;1.50;;
44328;SDS011;30039;51.462;6.892;2023-09-19T09:47:18;8.15;;;1.80;;
44328;SDS011;30039;51.462;6.892;2023-09-19T09:50:32;7.35;;;1.83;;
44328;SDS011;30039;51.462;6.892;2023-09-19T09:53:36;6.43;;;1.73;;
44328;SDS011;30039;51.462;6.892;2023-09-19T09:56:22;5.80;;;1.70;;
44328;SDS011;30039;51.462;6.892;2023-09-19T09:59:08;7.50;;;1.75;;
44328;SDS011;30039;51.462;6.892;2023-09-19T10:01:54;11.88;;;2.10;;
44328;SDS011;30039;51.462;6.892;2023-09-19T10:04:39;8.80;;;1.77;;
44328;SDS011;30039;51.462;6.892;2023-09-19T10:07:36;7.20;;;2.03;;
44328;SDS011;30039;51.462;6.892;2023-09-19T10:10:31;8.57;;;1.98;;
44328;SDS011;30039;51.462;6.892;2023-09-19T10:13:30;7.32;;;1.83;;
44328;SDS011;30039;51.462;6.892;2023-09-19T10:16:16;7.93;;;2.00;;
44328;SDS011;30039;51.462;6.892;2023-09-19T10:19:04;5.45;;;1.70;;
44328;SDS011;30039;51.462;6.892;2023-09-19T10:21:53;8.55;;;1.70;;
44328;SDS011;30039;51.462;6.892;2023-09-19T10:24:40;6.20;;;1.73;;
44328;SDS011;30039;51.462;6.892;2023-09-19T10:27:26;7.25;;;1.70;;
44328;SDS011;30039;51.462;6.892;2023-09-19T10:30:14;4.63;;;1.70;;
44328;SDS011;30039;51.462;6.892;2023-09-19T10:33:01;7.80;;;2.00;;
44328;SDS011;30039;51.462;6.892;2023-09-19T10:35:48;5.97;;;1.70;;
44328;SDS011;30039;51.462;6.892;2023-09-19T10:38:34;5.43;;;1.65;;
44328;SDS011;30039;51.462;6.892;2023-09-19T10:41:21;5.18;;;1.52;;
44328;SDS011;30039;51.462;6.892;2023-09-19T10:44:07;5.38;;;1.85;;
44328;SDS011;30039;51.462;6.892;2023-09-19T10:46:54;4.93;;;1.52;;
44328;SDS011;30039;51.462;6.892;2023-09-19T10:49:44;4.95;;;1.80;;
44328;SDS011;30039;51.462;6.892;2023-09-19T10:52:32;5.65;;;1.50;;
44328;SDS011;30039;51.462;6.892;2023-09-19T10:55:20;4.05;;;1.80;;
44328;SDS011;30039;51.462;6.892;2023-09-19T10:58:07;7.03;;;2.15;;
44328;SDS011;30039;51.462;6.892;2023-09-19T11:01:00;6.35;;;1.98;;
44328;SDS011;30039;51.462;6.892;2023-09-19T11:03:52;9.75;;;1.70;;
44328;SDS011;30039;51.462;6.892;2023-09-19T11:09:50;3.45;;;1.45;;
44328;SDS011;30039;51.462;6.892;2023-09-19T11:12:47;7.30;;;1.75;;
44328;SDS011;30039;51.462;6.892;2023-09-19T11:27:14;7.10;;;1.50;;
44328;SDS011;30039;51.462;6.892;2023-09-19T11:30:25;3.95;;;1.33;;
44328;SDS011;30039;51.462;6.892;2023-09-19T11:33:21;7.65;;;1.70;;
44328;SDS011;30039;51.462;6.892;2023-09-19T11:36:09;5.43;;;1.38;;
44328;SDS011;30039;51.462;6.892;2023-09-19T11:39:00;4.70;;;1.50;;
44328;SDS011;30039;51.462;6.892;2023-09-19T11:41:53;4.28;;;1.60;;
44328;SDS011;30039;51.462;6.892;2023-09-19T11:44:41;6.60;;;1.92;;
44328;SDS011;30039;51.462;6.892;2023-09-19T11:47:27;5.22;;;1.83;;
44328;SDS011;30039;51.462;6.892;2023-09-19T11:50:17;7.45;;;1.85;;
44328;SDS011;30039;51.462;6.892;2023-09-19T11:53:05;7.82;;;1.70;;
44328;SDS011;30039;51.462;6.892;2023-09-19T11:55:51;4.63;;;1.55;;
44328;SDS011;30039;51.462;6.892;2023-09-19T11:58:38;5.05;;;1.50;;
44328;SDS011;30039;51.462;6.892;2023-09-19T12:01:31;6.00;;;1.80;;
44328;SDS011;30039;51.462;6.892;2023-09-19T12:04:17;4.57;;;1.88;;
44328;SDS011;30039;51.462;6.892;2023-09-19T12:07:07;5.32;;;2.17;;
44328;SDS011;30039;51.462;6.892;2023-09-19T12:10:03;4.20;;;1.60;;
44328;SDS011;30039;51.462;6.892;2023-09-19T12:12:49;7.90;;;1.65;;
44328;SDS011;30039;51.462;6.892;2023-09-19T12:15:35;3.25;;;1.45;;
44328;SDS011;30039;51.462;6.892;2023-09-19T12:18:30;6.75;;;2.35;;
44328;SDS011;30039;51.462;6.892;2023-09-19T12:24:12;6.32;;;1.98;;
44328;SDS011;30039;51.462;6.892;2023-09-19T12:27:05;4.07;;;1.60;;
44328;SDS011;30039;51.462;6.892;2023-09-19T12:29:51;6.82;;;1.98;;
44328;SDS011;30039;51.462;6.892;2023-09-19T12:32:40;6.88;;;1.60;;
44328;SDS011;30039;51.462;6.892;2023-09-19T12:35:31;5.22;;;1.75;;
44328;SDS011;30039;51.462;6.892;2023-09-19T12:38:26;9.68;;;2.22;;
44328;SDS011;30039;51.462;6.892;2023-09-19T12:41:20;4.95;;;1.60;;
44328;SDS011;30039;51.462;6.892;2023-09-19T12:44:07;4.13;;;1.30;;
44328;SDS011;30039;51.462;6.892;2023-09-19T12:46:56;8.60;;;1.65;;
44328;SDS011;30039;51.462;6.892;2023-09-19T12:52:52;4.78;;;1.70;;
44328;SDS011;30039;51.462;6.892;2023-09-19T12:55:38;7.90;;;2.28;;
44328;SDS011;30039;51.462;6.892;2023-09-19T12:58:24;4.60;;;1.58;;
44328;SDS011;30039;51.462;6.892;2023-09-19T13:01:16;4.97;;;1.60;;
44328;SDS011;30039;51.462;6.892;2023-09-19T13:07:39;6.90;;;1.80;;
44328;SDS011;30039;51.462;6.892;2023-09-19T13:10:17;4.53;;;1.48;;
44328;SDS011;30039;51.462;6.892;2023-09-19T13:13:22;7.47;;;1.77;;
44328;SDS011;30039;51.462;6.892;2023-09-19T13:16:07;9.25;;;1.60;;
44328;SDS011;30039;51.462;6.892;2023-09-19T13:18:54;5.60;;;1.60;;
44328;SDS011;30039;51.462;6.892;2023-09-19T13:21:42;5.35;;;1.27;;
44328;SDS011;30039;51.462;6.892;2023-09-19T13:24:34;4.13;;;1.40;;
44328;SDS011;30039;51.462;6.892;2023-09-19T13:27:25;3.97;;;1.35;;
44328;SDS011;30039;51.462;6.892;2023-09-19T13:30:12;5.57;;;1.40;;
44328;SDS011;30039;51.462;6.892;2023-09-19T13:33:08;5.35;;;1.67;;
44328;SDS011;30039;51.462;6.892;2023-09-19T13:35:55;4.72;;;1.10;;
44328;SDS011;30039;51.462;6.892;2023-09-19T13:38:42;5.28;;;1.60;;
44328;SDS011;30039;51.462;6.892;2023-09-19T13:41:31;3.45;;;1.27;;
44328;SDS011;30039;51.462;6.892;2023-09-19T13:44:17;5.15;;;1.45;;
44328;SDS011;30039;51.462;6.892;2023-09-19T13:47:03;4.47;;;1.23;;
44328;SDS011;30039;51.462;6.892;2023-09-19T13:49:54;7.20;;;1.40;;
44328;SDS011;30039;51.462;6.892;2023-09-19T13:52:40;3.00;;;1.25;;
44328;SDS011;30039;51.462;6.892;2023-09-19T13:55:25;4.78;;;1.60;;
44328;SDS011;30039;51.462;6.892;2023-09-19T13:58:11;3.80;;;1.45;;
44328;SDS011;30039;51.462;6.892;2023-09-19T14:00:58;7.05;;;2.08;;
44328;SDS011;30039;51.462;6.892;2023-09-19T14:03:43;2.65;;;1.05;;
44328;SDS011;30039;51.462;6.892;2023-09-19T14:06:32;3.60;;;1.58;;
44328;SDS011;30039;51.462;6.892;2023-09-19T14:09:18;3.83;;;1.25;;
44328;SDS011;30039;51.462;6.892;2023-09-19T14:12:05;4.00;;;1.25;;
44328;SDS011;30039;51.462;6.892;2023-09-19T14:14:50;3.80;;;1.38;;
44328;SDS011;30039;51.462;6.892;2023-09-19T14:17:37;4.57;;;1.23;;
44328;SDS011;30039;51.462;6.892;2023-09-19T14:20:23;3.40;;;1.30;;
44328;SDS011;30039;51.462;6.892;2023-09-19T14:23:08;7.38;;;1.60;;
44328;SDS011;30039;51.462;6.892;2023-09-19T14:25:54;3.70;;;1.38;;
44328;SDS011;30039;51.462;6.892;2023-09-19T14:28:39;3.40;;;1.20;;
44328;SDS011;30039;51.462;6.892;2023-09-19T14:31:25;2.92;;;1.10;;
44328;SDS011;30039;51.462;6.892;2023-09-19T14:34:11;2.63;;;1.05;;
44328;SDS011;30039;51.462;6.892;2023-09-19T14:36:56;4.10;;;1.20;;
44328;SDS011;30039;51.462;6.892;2023-09-19T14:39:42;4.60;;;1.17;;
44328;SDS011;30039;51.462;6.892;2023-09-19T14:42:30;5.03;;;1.02;;
44328;SDS011;30039;51.462;6.892;2023-09-19T14:45:16;3.85;;;1.00;;
44328;SDS011;30039;51.462;6.892;2023-09-19T14:48:03;5.00;;;1.25;;
44328;SDS011;30039;51.462;6.892;2023-09-19T14:50:50;2.72;;;1.00;;
44328;SDS011;30039;51.462;6.892;2023-09-19T14:53:36;3.83;;;1.48;;
44328;SDS011;30039;51.462;6.892;2023-09-19T14:56:23;3.03;;;1.10;;
44328;SDS011;30039;51.462;6.892;2023-09-19T14:59:10;2.75;;;0.80;;
44328;SDS011;30039;51.462;6.892;2023-09-19T15:01:56;3.25;;;1.15;;
44328;SDS011;30039;51.462;6.892;2023-09-19T15:04:41;2.40;;;1.00;;
44328;SDS011;30039;51.462;6.892;2023-09-19T15:07:31;2.22;;;1.00;;
44328;SDS011;30039;51.462;6.892;2023-09-19T15:10:17;5.15;;;0.93;;
44328;SDS011;30039;51.462;6.892;2023-09-19T15:13:03;5.18;;;1.30;;
44328;SDS011;30039;51.462;6.892;2023-09-19T15:15:49;2.45;;;0.98;;
44328;SDS011;30039;51.462;6.892;2023-09-19T15:18:39;3.95;;;1.40;;
44328;SDS011;30039;51.462;6.892;2023-09-19T15:21:25;4.35;;;1.23;;
44328;SDS011;30039;51.462;6.892;2023-09-19T15:24:11;3.92;;;1.00;;
44328;SDS011;30039;51.462;6.892;2023-09-19T15:26:56;3.28;;;1.05;;
44328;SDS011;30039;51.462;6.892;2023-09-19T15:29:42;3.25;;;1.23;;
44328;SDS011;30039;51.462;6.892;2023-09-19T15:32:27;4.15;;;1.13;;
44328;SDS011;30039;51.462;6.892;2023-09-19T15:35:13;5.30;;;1.17;;
44328;SDS011;30039;51.462;6.892;2023-09-19T15:38:02;3.13;;;1.30;;
44328;SDS011;30039;51.462;6.892;2023-09-19T15:40:48;3.97;;;1.20;;
44328;SDS011;30039;51.462;6.892;2023-09-19T15:43:33;1.80;;;1.10;;
44328;SDS011;30039;51.462;6.892;2023-09-19T15:46:20;1.33;;;0.80;;
44328;SDS011;30039;51.462;6.892;2023-09-19T15:49:06;3.13;;;1.08;;
44328;SDS011;30039;51.462;6.892;2023-09-19T15:51:52;2.45;;;1.02;;
44328;SDS011;30039;51.462;6.892;2023-09-19T15:54:38;4.25;;;1.00;;
44328;SDS011;30039;51.462;6.892;2023-09-19T15:57:28;2.92;;;1.10;;
44328;SDS011;30039;51.462;6.892;2023-09-19T16:00:15;4.65;;;1.50;;
44328;SDS011;30039;51.462;6.892;2023-09-19T16:03:02;5.30;;;1.10;;
44328;SDS011;30039;51.462;6.892;2023-09-19T16:05:48;5.43;;;1.25;;
44328;SDS011;30039;51.462;6.892;2023-09-19T16:08:33;2.83;;;0.90;;
44328;SDS011;30039;51.462;6.892;2023-09-19T16:11:20;3.53;;;1.13;;
44328;SDS011;30039;51.462;6.892;2023-09-19T16:14:05;6.28;;;1.60;;
44328;SDS011;30039;51.462;6.892;2023-09-19T16:16:51;3.05;;;1.00;;
44328;SDS011;30039;51.462;6.892;2023-09-19T16:19:37;3.85;;;0.98;;
44328;SDS011;30039;51.462;6.892;2023-09-19T16:22:23;3.67;;;1.42;;
44328;SDS011;30039;51.462;6.892;2023-09-19T16:25:08;4.47;;;2.00;;
44328;SDS011;30039;51.462;6.892;2023-09-19T16:27:57;3.30;;;1.25;;
44328;SDS011;30039;51.462;6.892;2023-09-19T16:30:42;5.32;;;1.60;;
44328;SDS011;30039;51.462;6.892;2023-09-19T16:33:37;6.15;;;1.40;;
44328;SDS011;30039;51.462;6.892;2023-09-19T16:36:23;4.72;;;1.70;;
44328;SDS011;30039;51.462;6.892;2023-09-19T16:39:09;4.35;;;1.58;;
44328;SDS011;30039;51.462;6.892;2023-09-19T16:41:56;7.13;;;2.70;;
44328;SDS011;30039;51.462;6.892;2023-09-19T16:44:41;4.43;;;1.45;;
44328;SDS011;30039;51.462;6.892;2023-09-19T16:47:27;3.15;;;1.10;;
44328;SDS011;30039;51.462;6.892;2023-09-19T16:50:12;2.50;;;1.10;;
44328;SDS011;30039;51.462;6.892;2023-09-19T16:52:58;5.40;;;1.30;;
44328;SDS011;30039;51.462;6.892;2023-09-19T16:55:44;4.85;;;1.10;;
44328;SDS011;30039;51.462;6.892;2023-09-19T16:58:30;3.10;;;1.23;;
44328;SDS011;30039;51.462;6.892;2023-09-19T17:01:16;4.88;;;1.50;;
44328;SDS011;30039;51.462;6.892;2023-09-19T17:04:03;5.13;;;1.52;;
44328;SDS011;30039;51.462;6.892;2023-09-19T17:06:49;3.10;;;1.45;;
44328;SDS011;30039;51.462;6.892;2023-09-19T17:09:35;6.55;;;1.52;;
44328;SDS011;30039;51.462;6.892;2023-09-19T17:12:20;4.40;;;1.52;;
44328;SDS011;30039;51.462;6.892;2023-09-19T17:15:07;7.18;;;1.50;;
44328;SDS011;30039;51.462;6.892;2023-09-19T17:17:55;3.60;;;1.40;;